WEATHER DATA

YESTERDAY
Time Temp. Dewp. Hum. Wind dir Wind speed Wind gust Bar.
00:00 11.7 3 55 166 1.1 2.2 1005.1
00:03 11.7 2.7 54 157 1.7 5.3 1005
00:12 11.7 3.5 57 129 0.8 1.9 1004.8
00:23 11.7 3 55 166 2.2 4.4 1005
00:33 11.5 3 56 136 1.4 3.6 1004.6
00:43 11.4 2.9 56 187 2.5 5.6 1004.4
00:53 11.3 3.1 57 180 1.1 3.3 1004.1
01:03 11.2 3.7 60 108 0.8 3.1 1004.2
01:13 11.4 3.2 57 145 0.6 1.7 1004.2
01:23 11.3 3.1 57 172 0.8 3.6 1004.1
01:34 11.2 2.8 56 158 1.7 3.9 1003.8
01:44 11.3 2.8 56 174 2.2 4.7 1003.7
01:53 11.1 3.2 58 183 1.1 2.8 1003.3
02:11 11.6 3.1 56 132 1.9 6.1 1003.3
02:31 11.7 3.2 56 180 1.4 3.3 1002.7
02:51 11.4 2.9 56 187 3.1 5.6 1002.6
03:02 11.4 2.9 56 154 2.8 8.6 1002.5
03:12 11.5 3 56 154 1.9 4.4 1002.5
03:21 11.5 3 56 168 2.2 5.6 1001.9
03:31 11.4 2.9 56 173 3.6 6.1 1001.7
03:42 11.3 2.8 56 162 3.1 6.4 1001.6
03:52 11.2 2.8 56 135 3.3 7.2 1001.8
04:02 11.2 3 57 164 3.3 5.6 1001.8
04:12 11.1 2.9 57 167 2.2 5.6 1001.5
04:22 11.1 2.9 57 160 3.1 6.1 1001.3
04:32 11.2 3 57 142 1.9 5 1001.3
04:42 11.3 2.8 56 135 1.4 4.2 1001.1
04:53 11.6 2.9 55 90 1.7 5.3 1001.1
05:05 11.7 3 55 128 2.5 8.6 1000.9
05:16 11.6 2.9 55 162 3.3 6.9 1000.9
05:25 11.4 2.9 56 169 2.8 5.8 1000.7
05:35 11.3 2.8 56 154 2.2 4.4 1000.7
05:46 11.2 3 57 180 1.7 4.7 1000.2
05:56 11.1 2.9 57 176 2.2 4.2 1000
06:06 11 2.8 57 157 1.7 4.7 1000
06:16 10.9 2.7 57 161 3.1 6.1 999.8
06:25 10.9 3 58 169 1.9 7.8 999.5
06:35 11 2.8 57 161 3.1 8.1 999.8
06:45 11.1 2.9 57 156 3.3 6.4 999.6
06:56 11.1 2.9 57 149 2.5 5.6 999.8
07:05 11.1 2.9 57 170 2.5 5.3 999.5
07:15 11.2 2.8 56 147 2.2 4.7 999.6
07:26 11.2 2.8 56 167 2.8 6.4 999.2
07:36 11.2 2.8 56 152 2.8 5.3 999.1
07:46 11.3 2.8 56 149 1.4 4.4 999.2
07:55 11.5 3 56 225 0.6 1.7 999.3
08:06 11.5 2.5 54 90 1.9 5.3 999.1
08:16 11.7 3 55 120 1.4 3.3 999
08:26 11.5 3.5 58 164 1.9 4.4 998.8
08:37 11.4 3.9 60 135 2.2 4.7 999
08:46 11.3 4.3 62 137 1.9 6.1 998.9
08:56 11.2 4 61 167 1.1 2.5 998.8
09:06 11.2 4 61 161 1.9 4.4 998.7
09:17 11.2 3.7 60 181 1.4 3.1 998.6
09:27 11.1 3.6 60 175 1.9 3.3 998.5
09:36 11.2 3.5 59 161 1.4 3.6 998.5
09:47 11.4 3.4 58 142 1.4 2.8 998.6
09:57 11.3 3.3 58 187 1.9 4.2 998.7
10:07 11.1 3.4 59 169 1.1 2.5 998.8
10:17 11 3.3 59 156 1.9 4.4 998.6
10:28 10.7 3.5 61 158 2.2 4.4 998.7
10:37 10.5 3.8 63 153 1.7 3.3 998.8
10:47 10.3 4.2 66 145 0.8 2.8 998.8
10:57 10.2 4.1 66 143 1.1 2.8 998.7
11:08 10.3 4.2 66 90 0.6 1.4 998.6
11:18 10.3 4.2 66 135 0.8 2.5 998.5
11:27 10.4 4.3 66 198 0.6 1.9 998.5
11:38 10.4 4.3 66 177 0.8 1.9 998.4
11:48 10.6 4.3 65 51 0.3 0.8 998.4
11:58 10.7 4.2 64 329 0.3 0.8 998.2
12:08 10.9 4.6 65 173 0.8 1.7 998
12:18 11.1 4.6 64 195 0.6 2.8 997.9
12:28 11.3 4.5 63 164 0.8 1.9 998.1
12:38 11.6 4.6 62 178 0.6 1.4 998
12:49 11.8 4.1 59 0 0.6 997.8
12:55 11.9 3.4 56 116 1.4 3.1 997.7
13:05 12.1 4.1 58 159 1.9 3.3 997.7
13:15 12 3.8 57 167 1.7 3.6 997.5
13:25 12.1 3.8 57 157 0.8 1.7 997.5
13:36 12.2 4.2 58 209 0.3 1.1 997.3
13:46 12.1 3.8 57 57 0.3 1.1 997.3
13:55 12 3 54 47 0.8 3.1 997.1
14:05 12 3 54 70 0.8 2.2 997.1
14:16 12 3.2 55 128 0.6 1.4 997.2
14:26 11.9 2.9 54 45 1.1 3.6 997.1
14:36 11.8 2.5 53 55 1.4 3.6 997.1
14:46 11.9 2.6 53 55 1.7 4.4 996.8
14:56 12 2.7 53 50 1.1 2.2 996.8
15:06 11.9 2.6 53 74 1.7 3.9 996.8
15:16 11.9 2.9 54 66 1.1 3.1 996.8
15:27 11.9 2.6 53 65 1.1 3.1 996.9
15:37 11.9 2.9 54 116 0.8 2.2 996.8
15:46 11.8 2.8 54 67 1.4 3.3 996.5
15:57 11.8 2.8 54 61 0.8 2.8 996.6
16:07 12 3.5 56 296 0.8 1.7 996.4
16:17 12.1 3.6 56 270 0.8 1.4 996.4
16:27 12.2 3.4 55 287 0.8 1.7 996.4
16:37 12.2 2.9 53 50 1.1 3.3 996
16:47 12.3 3.3 54 115 0.6 2.2 996.2
16:57 12.5 3.7 55 249 0.8 1.4 996
17:07 12.4 3.6 55 336 0.3 1.9 996.1
17:18 12.6 3.8 55 285 0.8 1.4 996.1
17:27 12.6 3.5 54 309 0.8 2.5 996
17:37 12.7 3.9 55 255 0.6 1.4 995.8
17:48 12.7 3.6 54 301 0.8 1.4 995.7
17:58 12.6 3.8 55 270 0.8 1.4 995.7
18:08 12.5 3.5 54 315 0.3 0.8 995.6
18:18 12.4 3.6 55 180 0.6 1.7 995.4
18:28 12.3 3.8 56 270 0.6 1.1 995.4
18:38 12.1 3.3 55 176 0.3 1.1 995.3
18:48 12 3.5 56 225 0.3 1.1 995.2
18:59 11.7 3.2 56 172 0.6 1.4 995.1
19:08 11.6 2.6 54 37 1.4 3.9 995
19:18 11.7 2.4 53 74 0.8 2.8 994.9
19:28 11.6 2.6 54 90 0.3 1.7 994.8
19:39 11.6 2.4 53 53 0.8 3.1 994.8
19:49 11.5 2.3 53 57 1.7 3.3 994.9
19:59 11.4 2.2 53 61 1.4 3.3 994.7
20:09 11.4 2.2 53 66 0.8 2.5 994.8
20:19 11.3 2.6 55 90 0.3 1.1 994.8
20:29 11.2 2.5 55 131 0.8 3.1 994.8
20:39 11.2 2.5 55 90 0.8 1.9 994.9
20:50 11.2 2.2 54 125 0.8 2.8 994.7
20:59 11.2 2.2 54 137 1.4 4.2 995
21:20 11.2 2.2 54 90 0.8 3.1 994.9
21:30 11 2.3 55 64 0.6 1.9 994.9
21:40 10.9 2 54 144 1.4 2.5 995.1
21:55 10.6 2.2 56 61 0.8 1.7 995
22:10 10.1 2.5 59 55 0.8 1.9 994.8
22:20 9.8 2.4 60 60 0.6 1.1 994.8
22:30 9.6 2.7 62 63 0.6 1.4 994.6
22:40 9.4 2.5 62 61 0.8 1.9 994.6
22:50 9.4 2.5 62 147 0.6 1.4 994.7
23:00 9.3 2.2 61 74 0.6 1.7 994.8
23:11 9.5 2.8 63 62 0.8 1.7 994.7
23:21 9.2 3 65 18 0.3 0.8 994.7
23:30 9.1 2.4 63 52 0.3 0.8 994.8
23:41 9.1 2.9 65 66 0.6 1.7 994.7

DAY STATISTIC

2018-04-23
TEMPERATURE
AVERAGE
11.3
HIGH
12.7
17:37
LOW
9.1
23:30
PRESSURE
AVERAGE
998.4
HIGH
1005.1
00:00
LOW
994.6
22:30
DEWPOINT
AVERAGE
3.2
HIGH
4.6
12:08
LOW
2.0
21:40
HUMIDITY
AVERAGE
57
HIGH
66
10:47
LOW
53
14:36
WIND SPEED
AVERAGE
1.3
HIGH
3.6
03:31
WIND GUST
AVERAGE
3.3
HIGH
8.6
03:02
WIND DIRECTION
PREVAILING
S
32.6%
N
0.7
NE
18.8
E
8.7
SE
26.8
S
32.6
SW
2.2
W
5.1
NW
4.3
TEMPERATURE (°C)
LOW
9.1
HIGH
12.7
AVERAGE
11.3
PRESSURE (hpa)
LOW
994.6
HIGH
1005.1
AVERAGE
998.4
DEVICE